NWS Home NWS Lubbock West Texas Mesonet Day over Day changes as of 0259 PM, Fri Apr 28, 2017

Latest   N   C   S   Daily Sum   3hrΔ   24hrΔ   Soil Data 
Site Map   24hr Precip   72hr Precip   Google Plot


Station Time of Last Temp Today Temp Yesterday Delta-T Dewpoint Today Dewpoint Yesterday Delta-Td Delta-Pressure (mB)
Reese Center  02:55 PM 79.9 82.6 -2.7 35.5 27.1 8.4 2.7
Abernathy  02:55 PM 79.2 80.2 -1 40.7 32.3 8.4 3.3
Plainview  02:55 PM 77.7 76.2 1.5 40.8 36.6 4.2 3
Tahoka  02:55 PM 80.8 85.5 -4.7 37.7 31.4 6.2 2.7
Slaton  02:55 PM 80.4 83.5 -3.2 40.8 30.1 10.7 2.9
Levelland  02:55 PM 81.4 83.6 -2.2 33.9 25.8 8.1 2.2
Roaring Springs  02:55 PM 77.6 79.2 -1.7 47.8 44.6 3.2 2.5
Floydada  02:55 PM 77 79.6 -2.6 41.8 30.7 11.1 3
Ralls  02:55 PM 79.8 82.2 -2.4 39.8 32.5 7.3 2.8
Brownfield  02:55 PM 81.2 85.8 -4.6 37.3 29.1 8.2 2.4
Muleshoe  02:55 PM 77.2 78.8 -1.7 35 26.3 8.7 2.7
Morton  02:55 PM 80.7 85.5 -4.8 33.5 25 8.5 2.3
O'Donnell  02:55 PM 80.2 85.9 -5.8 35.1 28 7.1 2
Seagraves  02:55 PM 83.6 86.7 -3.1 34.1 26.7 7.3 1.7
Amherst  02:55 PM 78.1 81.5 -3.3 36.2 26.7 9.5 2.8
Plains  02:55 PM 79.7 84.3 -4.6 34.2 25.7 8.5 1.9
Lamesa  02:55 PM 83.8 86.3 -2.5 41 33 8 1.8
Hart  02:55 PM 76.1 76.7 -0.6 38.6 35.6 3 3.3
Friona  02:55 PM 73.7 75.5 -1.8 36.7 31 5.7 3.1
Dimmitt  02:55 PM 72.4 72.1 0.3 41.5 37 4.5 3.1
Tulia  02:55 PM 75.7 75.6 0 41.7 36.8 4.9 3.4
Silverton  02:55 PM 73.9 75 -1.1 44.6 37.6 7 3.5
Post  02:55 PM 83 86.5 -3.5 40.2 31.4 8.8 2.4
Seminole  02:55 PM 81.6 84.8 -3.2 31.6 26.7 4.9 1.4
Gail  02:55 PM 82.4 87.3 -4.9 41.7 35.9 5.8 2
White River Lake  02:55 PM 81.6 84.7 -3.1 43.2 33.7 9.5 2.5
Graham  02:55 PM 81.6 86.2 -4.6 38.1 30.2 7.9 2.1
Sundown  02:55 PM 80.7 85.8 -5.1 36.9 28 8.9 2.2
Anton  02:55 PM 80.9 84.1 -3.3 39 30.2 8.8 2.6
Fluvanna  02:55 PM 81.4 86.1 -4.7 36.3 30 6.3 2.1
Spur  02:55 PM 81.6 83.9 -2.3 39.5 31 8.5 2.3
Northwest Lubbock  02:55 PM 83.1 85.3 -2.3 36.9 29.5 7.4 2.9
Guthrie  02:55 PM 82.3 84.9 -2.6 43 38.9 4.1 2.2
Clarendon  02:55 PM 73.2 67.6 5.6 42.6 45.5 -2.9 3.3
Paducah  02:55 PM 81.4 83.7 -2.3 43.2 41.7 1.5 2.3
Snyder  02:55 PM 86.9 87.5 -0.6 40.5 34.8 5.8 1.5
Memphis  02:55 PM 75.3 77 -1.7 44.7 43.5 1.2 3.4
Jayton  02:55 PM 83.3 85.8 -2.5 41.4 33.9 7.5 1.8
Pampa  02:55 PM 71.6 71.7 -0.1 45.2 41.2 4 4.8
Aspermont  02:55 PM 87.4 87.2 0.2 41 36.8 4.2 1.6
Hereford  02:55 PM 71.9 69.7 2.1 37.7 36.6 1 3.5
Goodlett  02:55 PM 79.5 80.5 -1 47.6 40.8 6.8 2.1
McLean  02:45 PM 70.7 70.1 0.6 43.3 40.4 2.9 3.8
Denver City  02:55 PM 79.5 83.2 -3.6 32.9 25.5 7.3 1.6
Lake Alan Henry  02:55 PM 84.1 87.6 -3.5 38.4 30.8 7.6 2.1
Wolfforth  02:55 PM 81.9 86 -4.1 35.2 25.3 9.9 2.8
Andrews  02:55 PM 84.6 86.2 -1.6 35 28.2 6.8 1
Turkey  02:55 PM 77.6 77.1 0.5 46.9 43.5 3.4 3.6
Childress  02:45 PM 78.5 77.1 1.3 45.3 41.4 3.9 2.4
Tatum  02:55 PM 80.5 84.8 -4.2 33.8 26.9 6.9 1.8
Northfield  02:55 PM 79.4 78.5 0.9 45.7 43 2.7 3
Dora  02:55 PM 77.6 80.7 -3 32.8 23.6 9.2 2
Northwest San Angelo  02:55 PM 91.7 87.1 4.6 44.6 33 11.5 -0.9
Saint Lawrence  02:55 PM 87.7 86.4 1.2 35.5 32.6 2.8 0
Haskell  02:55 PM 84.6 83.1 1.5 43.2 36.6 6.6 0.9
Wall  02:55 PM 92.9 88.8 4.1 53.4 40.7 12.7 -1.2
Seymour  02:55 PM 87.3 80.6 6.7 47.4 44.2 3.3 -0.1
Knox City  02:55 PM 86.8 85.5 1.3 40.9 36.4 4.5 1.2
Guadalupe Mtns Park  02:55 PM 70.4 72.5 -2.1 31.1 26.7 4.4 -0.7
Caprock Canyons   02:55 PM 75.7 77.3 -1.6 46.3 42.6 3.7 3.8
Odell  02:55 PM 81.2 76.5 4.7 51.6 44.1 7.5 0.5
Coyanosa  02:55 PM 91.3 93.2 -2 37.2 33.6 3.6 0.1
Big Lake  02:55 PM 88.4 82.3 6.1 44 41.7 2.3 -0.6
Junction  02:55 PM 92 85 7 60.9 49 11.9 -2.9
Hobbs  02:55 PM 80.7 83.3 -2.7 32.1 24.8 7.3 0.8
Canadian  02:55 PM 72.7 74 -1.3 43.4 42.5 0.9 4.2
Palo Duro Canyon State Park Rim  02:55 PM 75 71.3 3.7 40.7 35.2 5.5 3.6
Bootleg  02:55 PM 69.8 76.4 -6.6 33.9 33.3 0.7 2.8
Sterling City  02:55 PM 89.3 86 3.3 44.4 36.2 8.3 -0.3
Mertzon  02:55 PM 93.6 85.5 8.1 49.2 42.1 7.1 -1.3
Persimmon Gap  02:55 PM 93.7 89.5 4.1 31.6 32.3 -0.6 -1.6
Weinert  02:55 PM 85.4 86.2 -0.8 48.8 41.6 7.3 1
Claude 12 Southwest  02:55 PM 71.4 69.2 2.3 41.4 37.3 4.1 3.3
Amarillo 7 South Southeast  02:55 PM 73.1 72.4 0.7 40.4 35.3 5.1 3.7
Umbarger  02:55 PM 73.6 72.8 0.8 39.7 34.4 5.3 3.6
Lomax  02:55 PM 88.1 90.3 -2.2 39.8 35.7 4.1 1.2
Amarillo 9 North Northeast  02:55 PM 71.2 76.7 -5.5 39.8 33.9 5.8 4.5
Aiken 3 West Southwest  02:55 PM 79 77.3 1.7 41.3 36.7 4.6 2.9
Sweetwater  02:55 PM 85 85.1 -0.2 51 39.8 11.2 0.8
Dozier  02:55 PM 74.9 73.9 1 48.8 43.9 4.9 3.6
Amarillo 15 North Northwest  02:55 PM 71.5 75.5 -4 38.4 33.7 4.8 4.6
Menard  02:55 PM 89.5 85 4.5 58 43.1 14.9 -2.3
Tarzan  02:55 PM 84 88.7 -4.7 41.4 33.7 7.6 1.5
Goodnight  02:55 PM 72.9 68.6 4.3 42.2 44 -1.8 3.2
Boys Ranch   02:55 PM 66.8 78 -11.2 40.3 34.7 5.5 5.5
Fort McKavett  02:55 PM 91.2 84.7 6.6 56.8 44.6 12.2 -2.2
Fort Chadbourne  02:55 PM 81.2 84.9 -3.7 61.6 41.3 20.2 0.1
Palo Duro Canyon State Park Floor  02:55 PM 76.5 73.1 3.4 40.6 38.4 2.2 3.3
Fort Lancaster  02:55 PM 92.3 85 7.3 50.4 42.4 8 -2.2
Dell City 1N  02:55 PM 82 83.5 -1.5 35.8 33.1 2.7 -1
Clyde  02:55 PM 81.5 82 -0.6 55.9 44.7 11.3 -0.1
Snyder SSW  02:55 PM 84.4 86.4 -2.1 45.8 38.6 7.2 1.6
Panhandle  02:55 PM 71 74.7 -3.7 39.8 36.5 3.3 4.4
Vigo Park  02:55 PM 75.5 72.6 3 45.2 38.8 6.4 3.3
Welch  02:55 PM 82.4 88.1 -5.7 39 32.7 6.3 2.2
Throckmorton  02:55 PM 85.5 80.3 5.2 57 46.9 10.1 -0.2
Sierra Blanca  02:55 PM 80.9 82.8 -1.9 31.5 34.8 -3.3 -0.8
Fort Lewis CO  02:55 PM 36.5 45.7 -9.2 27.8 34.8 -7 0.3
New Home  02:55 PM 82.7 87.4 -4.6 39.1 30.4 8.7 2.8
McCamey  02:55 PM 91.3 89.7 1.7 41.5 39.6 1.9 -0.3
Stamford  02:55 PM 85.7 85.5 0.3 50.5 41.3 9.2 0.9
Crowell  02:55 PM 80.5 82.5 -2 51 44.5 6.6 1.5
Stinnett  02:55 PM 66.8 74 -7.2 42.2 35.4 6.8 6.1
Olton  02:55 PM 78.2 79.6 -1.4 40.1 29.7 10.5 2.9

West Texas Mesonet Home   Site Map/Menu  NWS Lubbock Soil Data  Daily Summary Page  24hr Precip  72hr Precip  Google Plot